createdAt,value
2022-12-26T00:00:56.430Z,96473.16
2022-12-26T00:03:42.563Z,96447.66
2022-12-26T00:06:30.242Z,96463.31
2022-12-26T00:09:17.474Z,96477.44
2022-12-26T00:12:03.533Z,96465.66
2022-12-26T00:14:50.601Z,96455.72
2022-12-26T00:17:36.567Z,96480.63
2022-12-26T00:20:22.337Z,96472.22
2022-12-26T00:23:08.278Z,96479.34
2022-12-26T00:25:54.403Z,96486.47
2022-12-26T00:28:40.403Z,96468.00
2022-12-26T00:31:29.452Z,96479.75
2022-12-26T00:34:15.897Z,96490.09
2022-12-26T00:37:01.857Z,96484.91
2022-12-26T00:39:47.749Z,96476.91
2022-12-26T00:42:33.554Z,96486.72
2022-12-26T00:45:19.325Z,96478.59
2022-12-26T00:48:05.415Z,96476.66
2022-12-26T00:50:51.438Z,96502.41
2022-12-26T00:53:37.574Z,96499.75
2022-12-26T00:56:23.733Z,96505.75
2022-12-26T00:59:09.962Z,96493.44
2022-12-26T01:01:55.972Z,96497.09
2022-12-26T01:04:42.092Z,96495.13
2022-12-26T01:07:27.747Z,96495.28
2022-12-26T01:10:13.940Z,96499.19
2022-12-26T01:12:59.885Z,96496.53
2022-12-26T01:15:53.247Z,96486.72
2022-12-26T01:18:39.230Z,96486.03
2022-12-26T01:21:24.981Z,96501.84
2022-12-26T01:24:10.751Z,96503.56
2022-12-26T01:26:56.641Z,96503.41
2022-12-26T01:29:42.515Z,96483.38
2022-12-26T01:32:28.504Z,96490.09
2022-12-26T01:35:14.452Z,96489.38
2022-12-26T01:38:00.401Z,96497.53
2022-12-26T01:40:46.623Z,96498.75
2022-12-26T01:44:00.285Z,96480.72
2022-12-26T01:46:46.495Z,96496.84
2022-12-26T01:49:37.938Z,96496.84
2022-12-26T01:52:30.876Z,96482.00
2022-12-26T01:55:17.289Z,96491.03
2022-12-26T01:58:14.483Z,96466.00
2022-12-26T02:01:02.212Z,96480.03
2022-12-26T02:04:06.699Z,96489.25
2022-12-26T02:06:52.989Z,96493.00
2022-12-26T02:09:39.290Z,96485.34
2022-12-26T02:12:38.813Z,96486.44
2022-12-26T02:15:25.883Z,96480.28
2022-12-26T02:18:11.774Z,96486.97
2022-12-26T02:21:17.704Z,96480.94
2022-12-26T02:24:15.762Z,96503.34
2022-12-26T02:27:05.137Z,96502.75
2022-12-26T02:30:08.794Z,96503.53
2022-12-26T02:33:10.106Z,96483.50
2022-12-26T02:35:58.973Z,96508.00
2022-12-26T02:39:42.565Z,96510.22
2022-12-26T02:42:54.237Z,96520.53
2022-12-26T02:46:06.027Z,96519.78
2022-12-26T02:48:51.676Z,96523.28
2022-12-26T02:55:23.369Z,96513.59
2022-12-26T02:58:36.854Z,96521.78
2022-12-26T03:01:54.271Z,96514.59
2022-12-26T03:04:59.591Z,96528.47
2022-12-26T03:08:04.479Z,96508.53
2022-12-26T03:11:10.736Z,96512.34
2022-12-26T03:14:13.513Z,96520.44
2022-12-26T03:17:22.401Z,96521.03
2022-12-26T03:20:24.034Z,96525.75
2022-12-26T03:23:12.808Z,96492.19
2022-12-26T03:26:19.359Z,96490.59
2022-12-26T03:29:30.141Z,96485.69
2022-12-26T03:32:16.149Z,96514.91
2022-12-26T03:35:02.137Z,96502.19
2022-12-26T03:37:53.667Z,96503.88
2022-12-26T03:41:15.077Z,96501.72
2022-12-26T03:44:53.337Z,96494.16
2022-12-26T03:48:02.395Z,96505.34
2022-12-26T03:51:10.163Z,96491.06
2022-12-26T03:54:26.759Z,96507.56
2022-12-26T03:57:37.825Z,96509.09
2022-12-26T04:00:42.295Z,96499.31
2022-12-26T04:03:48.495Z,96504.91
2022-12-26T04:07:04.767Z,96502.34
2022-12-26T04:10:29.177Z,96510.44
2022-12-26T04:13:41.041Z,96504.81
2022-12-26T04:16:59.880Z,96520.25
2022-12-26T04:20:21.684Z,96527.84
2022-12-26T04:23:57.925Z,96516.78
2022-12-26T04:27:04.100Z,96528.44
2022-12-26T04:30:08.730Z,96527.84
2022-12-26T04:33:16.147Z,96542.06
2022-12-26T04:36:26.418Z,96529.34
2022-12-26T04:39:33.022Z,96541.25
2022-12-26T04:42:38.870Z,96544.03
2022-12-26T04:45:26.442Z,96534.16
2022-12-26T04:48:31.157Z,96545.94
2022-12-26T04:51:17.352Z,96546.41
2022-12-26T04:54:03.831Z,96545.19
2022-12-26T04:56:50.005Z,96548.06
2022-12-26T04:59:35.813Z,96533.06
2022-12-26T05:02:40.439Z,96550.25
2022-12-26T05:05:45.053Z,96543.16
2022-12-26T05:08:59.237Z,96560.38
2022-12-26T05:11:47.333Z,96553.75
2022-12-26T05:14:36.006Z,96549.78
2022-12-26T05:17:40.626Z,96561.59
2022-12-26T05:20:49.715Z,96560.75
2022-12-26T05:23:54.190Z,96568.34
2022-12-26T05:26:58.642Z,96558.94
2022-12-26T05:29:44.709Z,96560.47
2022-12-26T05:32:49.223Z,96567.72
2022-12-26T05:35:35.598Z,96567.72
2022-12-26T05:38:21.527Z,96562.56
2022-12-26T05:41:07.367Z,96565.09
2022-12-26T05:43:53.383Z,96570.25
2022-12-26T05:46:39.657Z,96564.25
2022-12-26T05:49:25.317Z,96578.19
2022-12-26T05:52:11.192Z,96567.50
2022-12-26T05:54:57.114Z,96578.31
2022-12-26T05:57:43.034Z,96571.34
2022-12-26T06:00:30.107Z,96567.97
2022-12-26T06:03:16.226Z,96556.06
2022-12-26T06:06:02.147Z,96558.00
2022-12-26T06:08:49.185Z,96572.28
2022-12-26T06:11:35.154Z,96556.91
2022-12-26T06:14:21.171Z,96567.38
2022-12-26T06:17:06.871Z,96574.56
2022-12-26T06:19:52.855Z,96567.63
2022-12-26T06:22:38.611Z,96574.59
2022-12-26T06:25:24.594Z,96580.78
2022-12-26T06:28:10.281Z,96551.06
2022-12-26T06:31:11.656Z,96572.97
2022-12-26T06:33:58.463Z,96594.38
2022-12-26T06:36:44.415Z,96597.75
2022-12-26T06:39:30.173Z,96575.84
2022-12-26T06:42:16.059Z,96582.34
2022-12-26T06:45:01.787Z,96571.88
2022-12-26T06:47:47.607Z,96595.69
2022-12-26T06:50:36.442Z,96599.78
2022-12-26T06:53:26.193Z,96588.13
2022-12-26T06:56:14.715Z,96577.03
2022-12-26T06:59:02.757Z,96594.00
2022-12-26T07:01:49.118Z,96581.84
2022-12-26T07:04:35.303Z,96584.97
2022-12-26T07:07:21.092Z,96606.41
2022-12-26T07:10:18.484Z,96605.69
2022-12-26T07:13:13.670Z,96596.31
2022-12-26T07:16:00.885Z,96619.41
2022-12-26T07:18:46.958Z,96619.28
2022-12-26T07:21:39.816Z,96626.03
2022-12-26T07:24:26.311Z,96618.78
2022-12-26T07:27:12.171Z,96602.41
2022-12-26T07:29:58.122Z,96626.00
2022-12-26T07:32:46.377Z,96624.19
2022-12-26T07:35:32.377Z,96610.22
2022-12-26T07:38:18.285Z,96610.94
2022-12-26T07:41:22.513Z,96638.72
2022-12-26T07:44:10.359Z,96647.28
2022-12-26T07:46:56.950Z,96630.66
2022-12-26T07:49:42.908Z,96642.69
2022-12-26T07:52:28.712Z,96642.81
2022-12-26T07:55:14.784Z,96648.59
2022-12-26T07:58:00.923Z,96629.81
2022-12-26T08:00:46.773Z,96635.44
2022-12-26T08:03:33.631Z,96649.75
2022-12-26T08:06:20.058Z,96654.97
2022-12-26T08:09:06.147Z,96655.41
2022-12-26T08:11:52.227Z,96655.41
2022-12-26T08:14:38.309Z,96660.06
2022-12-26T08:17:24.263Z,96666.22
2022-12-26T08:20:10.416Z,96659.13
2022-12-26T08:25:48.308Z,96661.00
2022-12-26T08:28:34.790Z,96665.22
2022-12-26T08:31:56.725Z,96672.66
2022-12-26T08:34:42.587Z,96673.88
2022-12-26T08:37:28.338Z,96670.28
2022-12-26T08:40:15.515Z,96681.81
2022-12-26T08:43:22.143Z,96687.13
2022-12-26T08:46:12.134Z,96672.06
2022-12-26T08:48:57.916Z,96669.41
2022-12-26T08:51:43.830Z,96649.78
2022-12-26T08:54:29.828Z,96659.88
2022-12-26T08:57:15.932Z,96654.56
2022-12-26T09:00:01.873Z,96666.38
2022-12-26T09:02:48.225Z,96674.25
2022-12-26T09:05:33.877Z,96677.50
2022-12-26T09:08:19.762Z,96666.91
2022-12-26T09:11:07.755Z,96649.41
2022-12-26T09:13:55.121Z,96675.53
2022-12-26T09:16:49.769Z,96674.00
2022-12-26T09:19:36.911Z,96650.66
2022-12-26T09:22:41.322Z,96677.00
2022-12-26T09:25:27.756Z,96662.91
2022-12-26T09:28:14.027Z,96668.03
2022-12-26T09:31:01.656Z,96661.03
2022-12-26T09:33:47.928Z,96669.69
2022-12-26T09:36:38.180Z,96662.06
2022-12-26T09:39:24.295Z,96666.41
2022-12-26T09:42:31.804Z,96643.22
2022-12-26T09:45:20.150Z,96652.34
2022-12-26T09:48:12.391Z,96633.88
2022-12-26T09:50:58.499Z,96634.44
2022-12-26T09:53:47.728Z,96626.34
2022-12-26T09:57:01.771Z,96653.97
2022-12-26T09:59:51.427Z,96653.28
2022-12-26T10:02:37.403Z,96640.72
2022-12-26T10:05:51.021Z,96630.38
2022-12-26T10:09:01.790Z,96638.09
2022-12-26T10:12:04.046Z,96627.91
2022-12-26T10:15:27.540Z,96624.97
2022-12-26T10:18:23.035Z,96615.44
2022-12-26T10:21:15.030Z,96620.53
2022-12-26T10:24:05.375Z,96613.50
2022-12-26T10:27:02.456Z,96605.81
2022-12-26T10:29:58.848Z,96595.72
2022-12-26T10:32:48.513Z,96577.69
2022-12-26T10:35:45.664Z,96577.25
2022-12-26T10:38:41.001Z,96581.19
2022-12-26T10:41:36.017Z,96574.03
2022-12-26T10:44:27.384Z,96573.94
2022-12-26T10:47:16.944Z,96574.63
2022-12-26T10:50:03.365Z,96560.34
2022-12-26T10:52:49.767Z,96579.38
2022-12-26T10:55:35.840Z,96561.06
2022-12-26T10:58:26.425Z,96558.09
2022-12-26T11:01:36.454Z,96557.00
2022-12-26T11:05:02.223Z,96551.53
2022-12-26T11:07:36.244Z,96559.91
2022-12-26T11:10:25.167Z,96555.16
2022-12-26T11:13:19.116Z,96562.88
2022-12-26T11:16:05.718Z,96553.66
2022-12-26T11:18:53.653Z,96554.19
2022-12-26T11:21:39.527Z,96545.25
2022-12-26T11:24:25.242Z,96547.06
2022-12-26T11:27:20.481Z,96518.47
2022-12-26T11:30:12.604Z,96544.38
2022-12-26T11:33:18.540Z,96527.81
2022-12-26T11:36:07.722Z,96526.53
2022-12-26T11:39:24.016Z,96523.03
2022-12-26T11:42:20.114Z,96530.28
2022-12-26T11:45:11.296Z,96514.91
2022-12-26T11:48:00.034Z,96520.78
2022-12-26T11:50:46.609Z,96515.03
2022-12-26T11:53:34.922Z,96501.00
2022-12-26T11:56:26.274Z,96503.09
2022-12-26T11:59:23.708Z,96505.59
2022-12-26T12:02:23.153Z,96498.06
2022-12-26T12:05:29.116Z,96490.03
2022-12-26T12:08:16.414Z,96484.94
2022-12-26T12:11:21.121Z,96486.94
2022-12-26T12:14:30.670Z,96488.72
2022-12-26T12:17:38.571Z,96458.47
2022-12-26T12:20:51.821Z,96480.81
2022-12-26T12:24:15.122Z,96471.00
2022-12-26T12:27:09.556Z,96455.84
2022-12-26T12:30:13.782Z,96465.19
2022-12-26T12:33:11.761Z,96473.94
2022-12-26T12:36:10.153Z,96456.81
2022-12-26T12:39:12.917Z,96429.16
2022-12-26T12:42:29.887Z,96451.31
2022-12-26T12:45:27.153Z,96466.78
2022-12-26T12:48:38.610Z,96471.50
2022-12-26T12:51:37.393Z,96467.91
2022-12-26T12:54:34.462Z,96471.81
2022-12-26T12:57:58.014Z,96461.94
2022-12-26T13:00:55.026Z,96460.94
2022-12-26T13:03:45.963Z,96451.69
2022-12-26T13:06:42.542Z,96443.94
2022-12-26T13:09:50.879Z,96425.28
2022-12-26T13:12:39.306Z,96436.84
2022-12-26T13:15:32.375Z,96417.59
2022-12-26T13:18:24.224Z,96406.66
2022-12-26T13:21:12.460Z,96414.63
2022-12-26T13:24:24.650Z,96414.38
2022-12-26T13:27:21.727Z,96415.09
2022-12-26T13:30:16.311Z,96415.72
2022-12-26T13:33:03.954Z,96422.81
2022-12-26T13:35:52.801Z,96409.47
2022-12-26T13:38:56.878Z,96410.31
2022-12-26T13:42:11.124Z,96406.53
2022-12-26T13:45:35.308Z,96396.16
2022-12-26T13:48:21.247Z,96387.59
2022-12-26T13:51:43.846Z,96399.88
2022-12-26T13:54:30.499Z,96403.78
2022-12-26T13:57:34.468Z,96380.78
2022-12-26T14:00:25.317Z,96400.53
2022-12-26T14:03:38.383Z,96406.53
2022-12-26T14:06:30.087Z,96412.78
2022-12-26T14:09:31.210Z,96419.84
2022-12-26T14:12:49.141Z,96424.47
2022-12-26T14:15:47.267Z,96405.84
2022-12-26T14:18:43.061Z,96402.59
2022-12-26T14:21:57.571Z,96425.16
2022-12-26T14:25:08.415Z,96404.69
2022-12-26T14:28:04.794Z,96405.03
2022-12-26T14:30:54.519Z,96405.66
2022-12-26T14:34:13.100Z,96389.06
2022-12-26T14:37:21.161Z,96408.22
2022-12-26T14:40:30.324Z,96414.69
2022-12-26T14:43:34.530Z,96395.97
2022-12-26T14:46:35.467Z,96409.56
2022-12-26T14:49:35.395Z,96410.94
2022-12-26T14:52:24.761Z,96418.16
2022-12-26T14:55:40.193Z,96419.84
2022-12-26T14:58:36.421Z,96412.69
2022-12-26T15:01:22.376Z,96418.88
2022-12-26T15:04:41.514Z,96418.22
2022-12-26T15:07:58.288Z,96418.56
2022-12-26T15:11:08.222Z,96417.72
2022-12-26T15:14:22.244Z,96419.91
2022-12-26T15:17:08.692Z,96420.53
2022-12-26T15:19:54.841Z,96429.22
2022-12-26T15:22:59.274Z,96425.34
2022-12-26T15:26:10.032Z,96422.16
2022-12-26T15:29:17.200Z,96431.66
2022-12-26T15:32:14.272Z,96422.06
2022-12-26T15:35:34.930Z,96421.91
2022-12-26T15:38:41.681Z,96423.38
2022-12-26T15:41:42.614Z,96426.69
2022-12-26T15:44:35.225Z,96415.69
2022-12-26T15:47:54.532Z,96420.63
2022-12-26T15:51:22.515Z,96421.94
2022-12-26T15:54:44.046Z,96424.91
2022-12-26T15:57:41.373Z,96420.94
2022-12-26T16:00:31.179Z,96409.53
2022-12-26T16:03:29.570Z,96431.41
2022-12-26T16:06:43.441Z,96431.69
2022-12-26T16:09:47.820Z,96434.16
2022-12-26T16:12:35.853Z,96434.16
2022-12-26T16:15:25.152Z,96441.13
2022-12-26T16:18:20.804Z,96444.09
2022-12-26T16:21:25.396Z,96445.09
2022-12-26T16:24:13.011Z,96451.59
2022-12-26T16:27:02.071Z,96452.06
2022-12-26T16:29:51.434Z,96450.69
2022-12-26T16:32:38.970Z,96453.69
2022-12-26T16:35:39.404Z,96456.31
2022-12-26T16:38:28.185Z,96451.44
2022-12-26T16:41:23.327Z,96440.31
2022-12-26T16:44:31.179Z,96462.50
2022-12-26T16:47:17.219Z,96437.75
2022-12-26T16:50:05.233Z,96439.03
2022-12-26T16:53:19.972Z,96457.38
2022-12-26T16:56:29.416Z,96457.88
2022-12-26T16:59:18.501Z,96458.72
2022-12-26T17:02:04.782Z,96460.00
2022-12-26T17:04:58.256Z,96440.88
2022-12-26T17:07:45.791Z,96449.09
2022-12-26T17:10:34.981Z,96452.06
2022-12-26T17:13:24.608Z,96453.91
2022-12-26T17:16:10.908Z,96456.88
2022-12-26T17:19:08.944Z,96446.50
2022-12-26T17:22:19.086Z,96461.13
2022-12-26T17:25:17.146Z,96453.50
2022-12-26T17:28:09.763Z,96469.59
2022-12-26T17:30:56.012Z,96469.91
2022-12-26T17:33:47.664Z,96462.63
2022-12-26T17:39:40.312Z,96468.44
2022-12-26T17:42:26.353Z,96471.97
2022-12-26T17:45:17.991Z,96470.88
2022-12-26T17:48:04.204Z,96463.88
2022-12-26T17:50:55.287Z,96461.75
2022-12-26T17:53:42.171Z,96466.25
2022-12-26T17:56:28.168Z,96471.88
2022-12-26T17:59:14.448Z,96468.97
2022-12-26T18:02:00.558Z,96472.34
2022-12-26T18:04:47.471Z,96475.97
2022-12-26T18:07:33.391Z,96465.22
2022-12-26T18:10:22.701Z,96469.56
2022-12-26T18:13:16.290Z,96459.63
2022-12-26T18:16:02.553Z,96471.69
2022-12-26T18:18:48.736Z,96457.81
2022-12-26T18:21:34.528Z,96459.69
2022-12-26T18:24:20.655Z,96472.44
2022-12-26T18:27:07.029Z,96464.06
2022-12-26T18:29:53.336Z,96443.38
2022-12-26T18:32:44.413Z,96476.81
2022-12-26T18:35:30.805Z,96469.94
2022-12-26T18:38:18.930Z,96451.06
2022-12-26T18:41:05.200Z,96451.91
2022-12-26T18:43:51.346Z,96453.72
2022-12-26T18:46:37.627Z,96452.06
2022-12-26T18:49:23.449Z,96444.78
2022-12-26T18:52:09.919Z,96452.63
2022-12-26T18:54:55.723Z,96453.91
2022-12-26T18:57:41.786Z,96453.66
2022-12-26T19:00:27.826Z,96453.81
2022-12-26T19:03:13.830Z,96452.66
2022-12-26T19:05:59.678Z,96453.09
2022-12-26T19:08:45.633Z,96441.22
2022-12-26T19:11:31.466Z,96449.91
2022-12-26T19:14:20.530Z,96448.81
2022-12-26T19:17:06.516Z,96452.47
2022-12-26T19:19:52.608Z,96453.03
2022-12-26T19:22:38.564Z,96446.72
2022-12-26T19:25:25.762Z,96452.72
2022-12-26T19:28:11.809Z,96442.53
2022-12-26T19:30:57.714Z,96448.84
2022-12-26T19:33:43.624Z,96448.16
2022-12-26T19:36:29.920Z,96444.78
2022-12-26T19:39:15.890Z,96453.91
2022-12-26T19:42:01.729Z,96457.53
2022-12-26T19:44:48.135Z,96447.47
2022-12-26T19:47:34.830Z,96453.34
2022-12-26T19:50:20.520Z,96450.13
2022-12-26T19:53:06.307Z,96434.78
2022-12-26T19:55:57.548Z,96444.56
2022-12-26T19:58:45.130Z,96455.31
2022-12-26T20:01:32.042Z,96451.00
2022-12-26T20:04:18.447Z,96440.53
2022-12-26T20:07:05.407Z,96468.09
2022-12-26T20:09:51.390Z,96455.91
2022-12-26T20:12:37.437Z,96465.16
2022-12-26T20:15:23.271Z,96439.00
2022-12-26T20:18:13.594Z,96446.13
2022-12-26T20:21:00.888Z,96459.00
2022-12-26T20:23:47.118Z,96467.97
2022-12-26T20:26:33.541Z,96452.03
2022-12-26T20:29:19.885Z,96460.25
2022-12-26T20:32:05.774Z,96460.41
2022-12-26T20:34:52.070Z,96441.50
2022-12-26T20:37:38.041Z,96451.72
2022-12-26T20:40:25.479Z,96423.47
2022-12-26T20:43:11.727Z,96451.47
2022-12-26T20:46:00.776Z,96454.13
2022-12-26T20:48:50.448Z,96462.09
2022-12-26T20:51:38.625Z,96459.72
2022-12-26T20:54:24.940Z,96474.16
2022-12-26T20:57:10.967Z,96469.94
2022-12-26T20:59:57.016Z,96465.75
2022-12-26T21:02:43.012Z,96480.03
2022-12-26T21:05:29.257Z,96447.56
2022-12-26T21:08:14.978Z,96475.81
2022-12-26T21:11:11.577Z,96467.28
2022-12-26T21:14:00.420Z,96463.09
2022-12-26T21:16:58.256Z,96459.03
2022-12-26T21:19:45.180Z,96469.91
2022-12-26T21:22:31.204Z,96457.59
2022-12-26T21:25:17.148Z,96452.97
2022-12-26T21:28:03.636Z,96463.91
2022-12-26T21:30:49.792Z,96463.91
2022-12-26T21:33:42.206Z,96471.44
2022-12-26T21:36:30.556Z,96453.94
2022-12-26T21:39:16.657Z,96444.13
2022-12-26T21:42:02.642Z,96452.00
2022-12-26T21:44:48.625Z,96454.34
2022-12-26T21:47:34.542Z,96450.84
2022-12-26T21:50:20.625Z,96455.47
2022-12-26T21:53:07.332Z,96458.47
2022-12-26T21:55:53.340Z,96462.22
2022-12-26T21:58:58.365Z,96461.53
2022-12-26T22:01:44.490Z,96454.38
2022-12-26T22:04:30.347Z,96422.34
2022-12-26T22:07:16.035Z,96445.59
2022-12-26T22:10:03.048Z,96455.81
2022-12-26T22:12:57.725Z,96457.59
2022-12-26T22:16:03.891Z,96441.94
2022-12-26T22:18:49.964Z,96459.41
2022-12-26T22:21:35.984Z,96447.38
2022-12-26T22:24:22.508Z,96444.19
2022-12-26T22:27:08.287Z,96455.91
2022-12-26T22:29:54.154Z,96439.31
2022-12-26T22:32:40.083Z,96447.38
2022-12-26T22:35:25.930Z,96453.66
2022-12-26T22:38:11.866Z,96423.16
2022-12-26T22:40:58.891Z,96449.75
2022-12-26T22:43:45.382Z,96446.25
2022-12-26T22:46:31.687Z,96409.88
2022-12-26T22:49:17.409Z,96432.81
2022-12-26T22:52:03.414Z,96416.00
2022-12-26T22:54:49.378Z,96457.69
2022-12-26T22:57:35.186Z,96433.34
2022-12-26T23:00:21.118Z,96436.69
2022-12-26T23:03:07.348Z,96433.22
2022-12-26T23:05:54.383Z,96419.38
2022-12-26T23:08:40.449Z,96403.88
2022-12-26T23:11:34.473Z,96416.34
2022-12-26T23:14:21.354Z,96417.16
2022-12-26T23:17:10.791Z,96403.16
2022-12-26T23:20:15.485Z,96406.78
2022-12-26T23:23:01.772Z,96416.75
2022-12-26T23:25:48.132Z,96409.88
2022-12-26T23:28:52.577Z,96423.81
2022-12-26T23:31:38.690Z,96434.72
2022-12-26T23:34:24.503Z,96439.06
2022-12-26T23:37:10.235Z,96419.06
2022-12-26T23:39:56.125Z,96427.31
2022-12-26T23:42:42.060Z,96430.66
2022-12-26T23:45:27.805Z,96441.53
2022-12-26T23:48:13.985Z,96434.28
2022-12-26T23:51:04.989Z,96432.72
2022-12-26T23:53:50.813Z,96423.75
2022-12-26T23:56:37.498Z,96432.88
2022-12-26T23:59:23.789Z,96447.38
